Disclaimer

Please do not use the information listed here in-flight or in-navigation, as they are not provided to us by the airports but are provided by volunteers, so they might be outdated.

Search


Regions


Airport information page

Radio informations:
Tower (TWR) - 122.1 MHz
Ground (GND) - 122.1 MHz

Airport informations:
Latitude: 47° 59' 16.00" N
Longitude: 001° 45' 38.00" E
Elevation: 412 feet - 126 meters
Operating hours: Remarks
Operating agency: Military
Timezone: UTC+1(+2DT) - Last Sunday in March to last Sunday in October
Fuel: Jet A1, without icing nhibitor.

100/130 MIL Spec, low lead, aviation gasoline (BLUE)

Runway information:
07/25 - 7887 x 148 feet< - >2404 x 45 meters

Recent METARs:
LFOJ 151230Z AUTO 16010KT 8000 -FZRA BKN027 BKN032 BKN050 M00/M03 Q1018 BECMG RADZ BKN007 BKN015
LFOJ 151300Z AUTO 15012KT 6000 -FZRA FEW019/// SCT028/// BKN044/// ///TCU M00/M02 Q1017 BECMG RADZ BKN007 BKN015
LFOJ 151330Z AUTO 14009KT 6000 -FZRA BKN017/// BKN025/// OVC056/// ///TCU M00/M02 Q1017 TEMPO 15015G25KT 3000 RA BKN003 BKN007

Airport on the map: